Time;durP1;ratioP1;P1;durP2;ratioP2;P2;SDS_P1;SDS_P2;PMS_P1;PMS_P2;Temp;Humidity;BMP_temperature;BMP_pressure;BME280_temperature;BME280_humidity;BME280_pressure;Samples;Min_cycle;Max_cycle;Signal;HPM_P1;HPM_P2
2022/07/17 00:01:54;;;;;;;4.30;2.00;;;;;;;;;;5063983;28;20537;-65
2022/07/17 00:04:20;;;;;;;2.80;1.92;;;;;;;;;;5071834;28;20053;-67
2022/07/17 00:06:47;;;;;;;5.22;2.30;;;;;;;;;;5070470;28;20053;-65
2022/07/17 00:09:13;;;;;;;5.25;2.13;;;;;;;;;;5056253;28;20049;-65
2022/07/17 00:11:40;;;;;;;5.45;2.15;;;;;;;;;;5052212;28;20061;-65
2022/07/17 00:14:06;;;;;;;3.22;2.22;;;;;;;;;;5052371;28;20536;-63
2022/07/17 00:16:32;;;;;;;4.93;2.60;;;;;;;;;;5059563;28;20136;-65
2022/07/17 00:18:59;;;;;;;6.35;2.17;;;;;;;;;;5059468;28;20064;-64
2022/07/17 00:21:25;;;;;;;4.32;2.30;;;;;;;;;;5068952;28;20053;-64
2022/07/17 00:23:52;;;;;;;6.63;2.10;;;;;;;;;;5056942;28;20153;-64
2022/07/17 00:26:19;;;;;;;3.15;2.33;;;;;;;;;;5052095;28;20062;-65
2022/07/17 00:28:45;;;;;;;4.93;2.03;;;;;;;;;;5066731;28;20081;-65
2022/07/17 00:31:11;;;;;;;4.50;2.80;;;;;;;;;;5053221;28;20053;-66
2022/07/17 00:33:38;;;;;;;3.53;1.92;;;;;;;;;;5056394;28;20056;-65
2022/07/17 00:36:04;;;;;;;5.13;1.88;;;;;;;;;;5063660;28;20140;-65
2022/07/17 00:38:32;;;;;;;3.17;1.80;;;;;;;;;;5058278;28;20046;-64
2022/07/17 00:40:58;;;;;;;3.97;2.00;;;;;;;;;;5056628;28;20056;-64
2022/07/17 00:43:25;;;;;;;5.45;2.03;;;;;;;;;;5064633;28;20057;-64
2022/07/17 00:45:59;;;;;;;3.72;1.90;;;;;;;;;;5070702;28;20052;-65
2022/07/17 00:48:25;;;;;;;5.43;2.20;;;;;;;;;;5077402;28;20144;-65
2022/07/17 00:50:52;;;;;;;3.13;1.80;;;;;;;;;;5051484;28;20050;-65
2022/07/17 00:53:18;;;;;;;4.03;2.10;;;;;;;;;;5052663;28;20137;-65
2022/07/17 00:55:47;;;;;;;5.70;2.42;;;;;;;;;;5071243;28;20049;-66
2022/07/17 00:58:18;;;;;;;2.97;2.08;;;;;;;;;;5069987;28;20102;-66
2022/07/17 01:00:45;;;;;;;5.28;2.38;;;;;;;;;;5070470;28;20055;-65
2022/07/17 01:03:12;;;;;;;7.05;2.22;;;;;;;;;;5070258;28;20064;-65
2022/07/17 01:05:39;;;;;;;4.38;2.00;;;;;;;;;;5065180;28;20049;-65
2022/07/17 01:08:06;;;;;;;4.78;2.30;;;;;;;;;;5051174;28;20059;-66
2022/07/17 01:10:32;;;;;;;5.25;2.15;;;;;;;;;;5051786;28;20118;-65
2022/07/17 01:12:58;;;;;;;3.35;2.10;;;;;;;;;;5059157;28;20053;-65
2022/07/17 01:15:25;;;;;;;5.43;2.35;;;;;;;;;;5053476;28;20526;-65
2022/07/17 01:17:52;;;;;;;4.53;2.20;;;;;;;;;;5071082;28;20189;-65
2022/07/17 01:20:18;;;;;;;2.78;1.90;;;;;;;;;;5069673;28;20053;-66
2022/07/17 01:22:49;;;;;;;5.13;2.05;;;;;;;;;;5069290;28;20139;-66
2022/07/17 01:25:22;;;;;;;3.13;1.80;;;;;;;;;;5071261;28;20144;-65
2022/07/17 01:27:48;;;;;;;6.20;2.33;;;;;;;;;;5062298;28;20049;-65
2022/07/17 01:30:15;;;;;;;4.22;2.30;;;;;;;;;;5067299;28;20064;-65
2022/07/17 01:32:41;;;;;;;5.03;2.28;;;;;;;;;;5065281;28;20060;-65
2022/07/17 01:35:09;;;;;;;4.72;1.92;;;;;;;;;;5065133;28;20147;-65
2022/07/17 01:37:37;;;;;;;6.07;2.35;;;;;;;;;;5059749;28;20053;-65
2022/07/17 01:40:04;;;;;;;4.70;2.13;;;;;;;;;;5061485;28;20048;-65
2022/07/17 01:42:31;;;;;;;5.82;2.35;;;;;;;;;;5062169;28;20057;-64
2022/07/17 01:44:57;;;;;;;5.40;1.95;;;;;;;;;;5072472;28;20180;-67
2022/07/17 01:47:24;;;;;;;4.50;2.17;;;;;;;;;;5073497;28;20525;-65
2022/07/17 01:49:52;;;;;;;4.00;2.13;;;;;;;;;;5072287;28;20084;-66
2022/07/17 01:52:19;;;;;;;11.73;2.17;;;;;;;;;;5072565;28;20113;-65
2022/07/17 01:54:45;;;;;;;5.07;2.03;;;;;;;;;;5065152;28;20055;-65
2022/07/17 01:57:12;;;;;;;4.72;1.75;;;;;;;;;;5065044;28;20947;-65
2022/07/17 01:59:38;;;;;;;6.53;2.35;;;;;;;;;;5061442;28;20045;-64
2022/07/17 02:02:05;;;;;;;4.95;1.52;;;;;;;;;;5073703;28;20136;-65
2022/07/17 02:04:32;;;;;;;4.80;1.83;;;;;;;;;;5069166;28;20060;-65
2022/07/17 02:06:59;;;;;;;4.43;2.00;;;;;;;;;;5073526;28;20520;-65
2022/07/17 02:09:25;;;;;;;8.48;2.10;;;;;;;;;;5089750;28;20056;-65
2022/07/17 02:11:53;;;;;;;3.97;1.70;;;;;;;;;;5069498;28;20438;-66
2022/07/17 02:14:19;;;;;;;4.15;1.88;;;;;;;;;;5054042;28;20136;-65
2022/07/17 02:16:46;;;;;;;8.43;2.08;;;;;;;;;;5056382;28;20050;-65
2022/07/17 02:19:12;;;;;;;4.93;2.13;;;;;;;;;;5059581;28;20548;-64
2022/07/17 02:21:39;;;;;;;3.47;1.90;;;;;;;;;;5073461;28;20064;-65
2022/07/17 02:24:06;;;;;;;4.28;1.88;;;;;;;;;;5060262;28;20057;-65
2022/07/17 02:26:32;;;;;;;4.65;1.83;;;;;;;;;;5062883;28;20059;-65
2022/07/17 02:28:59;;;;;;;5.57;2.28;;;;;;;;;;5060887;28;20553;-65
2022/07/17 02:31:25;;;;;;;6.22;2.15;;;;;;;;;;5053724;28;20665;-65
2022/07/17 02:33:52;;;;;;;5.80;1.88;;;;;;;;;;5053295;28;20084;-64
2022/07/17 02:36:18;;;;;;;5.28;2.00;;;;;;;;;;5053973;28;20057;-65
2022/07/17 02:38:45;;;;;;;9.50;3.17;;;;;;;;;;5087543;28;20053;-66
2022/07/17 02:41:11;;;;;;;6.60;2.60;;;;;;;;;;5085536;28;20135;-64
2022/07/17 02:43:37;;;;;;;6.63;2.38;;;;;;;;;;5073238;28;20053;-64
2022/07/17 02:46:04;;;;;;;4.55;2.22;;;;;;;;;;5063562;28;20534;-65
2022/07/17 02:48:30;;;;;;;5.57;2.22;;;;;;;;;;5053406;28;20061;-65
2022/07/17 02:50:57;;;;;;;11.48;2.30;;;;;;;;;;5056473;28;20052;-65
2022/07/17 02:53:23;;;;;;;3.22;2.00;;;;;;;;;;5071451;28;20049;-66
2022/07/17 02:55:49;;;;;;;5.35;2.15;;;;;;;;;;5069569;28;20136;-66
2022/07/17 02:58:16;;;;;;;5.53;2.30;;;;;;;;;;5063475;28;20053;-65
2022/07/17 03:00:42;;;;;;;5.97;2.33;;;;;;;;;;5054655;28;20116;-65
2022/07/17 03:03:08;;;;;;;7.32;2.03;;;;;;;;;;5058948;28;20064;-64
2022/07/17 03:05:35;;;;;;;8.15;2.10;;;;;;;;;;5074809;28;20049;-65
2022/07/17 03:08:01;;;;;;;6.05;2.53;;;;;;;;;;5079914;28;20049;-65
2022/07/17 03:10:27;;;;;;;5.75;2.15;;;;;;;;;;5087910;28;20462;-65
2022/07/17 03:12:54;;;;;;;6.00;2.55;;;;;;;;;;5056133;28;20133;-66
2022/07/17 03:15:21;;;;;;;5.82;2.72;;;;;;;;;;5051476;28;20061;-66
2022/07/17 03:17:48;;;;;;;4.38;2.13;;;;;;;;;;5053226;28;20446;-65
2022/07/17 03:20:14;;;;;;;5.68;2.50;;;;;;;;;;5074797;28;20123;-65
2022/07/17 03:22:41;;;;;;;4.85;2.20;;;;;;;;;;5072551;28;20053;-65
2022/07/17 03:25:07;;;;;;;5.40;2.25;;;;;;;;;;5055561;28;20132;-65
2022/07/17 03:27:34;;;;;;;3.08;2.08;;;;;;;;;;5070110;28;20147;-65
2022/07/17 03:30:00;;;;;;;5.13;2.40;;;;;;;;;;5072737;28;20506;-65
2022/07/17 03:32:27;;;;;;;5.72;2.30;;;;;;;;;;5072624;28;20144;-66
2022/07/17 03:34:53;;;;;;;5.85;2.92;;;;;;;;;;5073393;28;20521;-66
2022/07/17 03:37:19;;;;;;;4.90;2.22;;;;;;;;;;5064055;28;20053;-65
2022/07/17 03:39:46;;;;;;;3.70;2.10;;;;;;;;;;5052639;28;20053;-65
2022/07/17 03:42:12;;;;;;;2.30;1.90;;;;;;;;;;5064017;28;20057;-65
2022/07/17 03:44:39;;;;;;;7.97;2.20;;;;;;;;;;5052941;28;20060;-65
2022/07/17 03:47:06;;;;;;;7.05;2.45;;;;;;;;;;5074921;28;20056;-66
2022/07/17 03:49:32;;;;;;;6.07;2.25;;;;;;;;;;5081068;28;20064;-65
2022/07/17 03:51:59;;;;;;;4.47;2.20;;;;;;;;;;5071588;28;20053;-65
2022/07/17 03:54:25;;;;;;;3.42;2.13;;;;;;;;;;5069677;28;20440;-65
2022/07/17 03:56:52;;;;;;;4.55;2.28;;;;;;;;;;5072178;28;20073;-65
2022/07/17 03:59:19;;;;;;;6.43;2.65;;;;;;;;;;5070277;28;20485;-68
2022/07/17 04:01:45;;;;;;;5.00;2.33;;;;;;;;;;5064593;28;20135;-66
2022/07/17 04:04:12;;;;;;;6.03;1.98;;;;;;;;;;5072425;28;20049;-65
2022/07/17 04:06:38;;;;;;;4.28;2.17;;;;;;;;;;5059507;28;20140;-67
2022/07/17 04:09:04;;;;;;;8.77;2.20;;;;;;;;;;5068340;28;20064;-65
2022/07/17 04:11:31;;;;;;;5.13;2.03;;;;;;;;;;5066038;28;20084;-65
2022/07/17 04:13:57;;;;;;;4.97;2.28;;;;;;;;;;5089340;28;20144;-66
2022/07/17 04:16:24;;;;;;;6.03;2.03;;;;;;;;;;5074360;28;20088;-65
2022/07/17 04:18:50;;;;;;;5.78;2.33;;;;;;;;;;5071720;28;20054;-66
2022/07/17 04:21:17;;;;;;;6.28;2.17;;;;;;;;;;5067165;28;20081;-66
2022/07/17 04:23:43;;;;;;;7.28;2.58;;;;;;;;;;5052657;28;20062;-65
2022/07/17 04:26:10;;;;;;;4.20;2.13;;;;;;;;;;5061564;28;20143;-65
2022/07/17 04:28:37;;;;;;;6.45;2.05;;;;;;;;;;5086465;28;20056;-66
2022/07/17 04:31:03;;;;;;;4.15;2.08;;;;;;;;;;5067139;28;20077;-65
2022/07/17 04:33:30;;;;;;;3.10;1.80;;;;;;;;;;5073178;28;20502;-66
2022/07/17 04:35:56;;;;;;;5.32;2.15;;;;;;;;;;5066666;28;20064;-64
2022/07/17 04:38:22;;;;;;;5.05;2.03;;;;;;;;;;5082355;28;20053;-65
2022/07/17 04:40:49;;;;;;;6.93;2.72;;;;;;;;;;5057484;28;20485;-66
2022/07/17 04:43:16;;;;;;;17.38;2.72;;;;;;;;;;5068340;28;20052;-65
2022/07/17 04:45:42;;;;;;;5.75;2.28;;;;;;;;;;5070016;28;20135;-65
2022/07/17 04:48:08;;;;;;;5.30;2.25;;;;;;;;;;5064034;28;20084;-66
2022/07/17 04:50:35;;;;;;;6.47;2.45;;;;;;;;;;5068222;28;20053;-66
2022/07/17 04:53:01;;;;;;;4.80;2.30;;;;;;;;;;5051567;28;20141;-65
2022/07/17 04:55:28;;;;;;;6.75;2.15;;;;;;;;;;5060963;28;20053;-65
2022/07/17 04:57:54;;;;;;;4.45;1.90;;;;;;;;;;5058224;28;20053;-66
2022/07/17 05:00:20;;;;;;;5.13;2.10;;;;;;;;;;5069783;28;20049;-65
2022/07/17 05:02:47;;;;;;;8.07;2.83;;;;;;;;;;5056967;28;20533;-65
2022/07/17 05:05:13;;;;;;;8.85;2.75;;;;;;;;;;5061207;28;20050;-65
2022/07/17 05:07:39;;;;;;;3.20;2.08;;;;;;;;;;5069318;28;20579;-66
2022/07/17 05:10:06;;;;;;;7.35;2.28;;;;;;;;;;5069892;28;20139;-67
2022/07/17 05:12:32;;;;;;;8.10;2.22;;;;;;;;;;5070011;28;20053;-66
2022/07/17 05:14:58;;;;;;;4.97;2.22;;;;;;;;;;5053715;28;20059;-66
2022/07/17 05:17:25;;;;;;;6.30;2.10;;;;;;;;;;5051772;28;20498;-66
2022/07/17 05:19:51;;;;;;;4.22;2.10;;;;;;;;;;5054050;28;20071;-66
2022/07/17 05:22:17;;;;;;;5.30;2.17;;;;;;;;;;5054022;28;20521;-66
2022/07/17 05:24:44;;;;;;;4.95;1.90;;;;;;;;;;5051042;28;20080;-66
2022/07/17 05:27:10;;;;;;;8.50;2.10;;;;;;;;;;5054721;28;20064;-67
2022/07/17 05:29:36;;;;;;;3.45;1.67;;;;;;;;;;5056667;28;20065;-66
2022/07/17 05:32:03;;;;;;;5.60;2.50;;;;;;;;;;5063499;28;20050;-67
2022/07/17 05:34:31;;;;;;;3.50;1.65;;;;;;;;;;5050931;28;20050;-65
2022/07/17 05:36:57;;;;;;;2.80;1.77;;;;;;;;;;5053739;28;20415;-66
2022/07/17 05:39:23;;;;;;;6.53;1.60;;;;;;;;;;5055057;28;20049;-66
2022/07/17 05:41:50;;;;;;;5.97;2.10;;;;;;;;;;5057723;28;20152;-66
2022/07/17 05:44:16;;;;;;;4.05;1.80;;;;;;;;;;5066993;28;20536;-65
2022/07/17 05:46:43;;;;;;;7.53;2.05;;;;;;;;;;5068292;28;20049;-65
2022/07/17 05:49:09;;;;;;;6.55;2.40;;;;;;;;;;5051929;28;20084;-66
2022/07/17 05:51:35;;;;;;;8.60;2.42;;;;;;;;;;5060484;28;20518;-65
2022/07/17 05:54:02;;;;;;;7.68;2.00;;;;;;;;;;5070948;28;20056;-66
2022/07/17 05:56:28;;;;;;;5.50;1.85;;;;;;;;;;5055897;28;20066;-66
2022/07/17 05:58:54;;;;;;;9.05;2.83;;;;;;;;;;5050954;28;20145;-66
2022/07/17 06:01:21;;;;;;;7.97;1.90;;;;;;;;;;5050261;28;20060;-65
2022/07/17 06:03:47;;;;;;;4.53;1.85;;;;;;;;;;5055468;28;20064;-65
2022/07/17 06:06:13;;;;;;;10.05;2.17;;;;;;;;;;5070378;28;20103;-65
2022/07/17 06:08:40;;;;;;;5.75;2.28;;;;;;;;;;5065639;28;20137;-65
2022/07/17 06:11:06;;;;;;;5.28;2.28;;;;;;;;;;5050876;28;20061;-66
2022/07/17 06:13:32;;;;;;;6.30;2.10;;;;;;;;;;5049489;28;20140;-65
2022/07/17 06:15:59;;;;;;;7.53;2.10;;;;;;;;;;5050396;28;20053;-65
2022/07/17 06:18:26;;;;;;;4.25;1.70;;;;;;;;;;5057850;28;20064;-66
2022/07/17 06:20:52;;;;;;;4.20;1.73;;;;;;;;;;5072997;28;20086;-65
2022/07/17 06:23:18;;;;;;;5.72;1.85;;;;;;;;;;5072954;28;20049;-65
2022/07/17 06:25:45;;;;;;;5.38;1.90;;;;;;;;;;5053751;28;20148;-66
2022/07/17 06:28:11;;;;;;;4.70;2.28;;;;;;;;;;5069925;28;20110;-66
2022/07/17 06:30:37;;;;;;;7.85;1.90;;;;;;;;;;5072671;28;20172;-67
2022/07/17 06:33:04;;;;;;;6.35;1.95;;;;;;;;;;5070813;28;20064;-66
2022/07/17 06:35:33;;;;;;;3.75;1.75;;;;;;;;;;5070379;28;20129;-67
2022/07/17 06:38:00;;;;;;;7.10;2.25;;;;;;;;;;5059365;28;20059;-65
2022/07/17 06:40:26;;;;;;;6.45;2.22;;;;;;;;;;5072144;28;20159;-67
2022/07/17 06:42:52;;;;;;;7.53;2.67;;;;;;;;;;5072280;28;20053;-66
2022/07/17 06:45:19;;;;;;;6.97;2.33;;;;;;;;;;5071078;28;20053;-66
2022/07/17 06:47:45;;;;;;;6.65;2.20;;;;;;;;;;5072959;28;20057;-65
2022/07/17 06:50:12;;;;;;;6.43;2.75;;;;;;;;;;5073264;28;20049;-65
2022/07/17 06:52:38;;;;;;;11.73;2.63;;;;;;;;;;5072808;28;20183;-65
2022/07/17 06:55:11;;;;;;;8.15;2.65;;;;;;;;;;5071772;28;20139;-66
2022/07/17 06:57:37;;;;;;;5.22;2.22;;;;;;;;;;5068161;28;20059;-65
2022/07/17 07:00:04;;;;;;;7.57;1.90;;;;;;;;;;5069523;28;20055;-65
2022/07/17 07:02:30;;;;;;;5.35;2.75;;;;;;;;;;5071964;28;20075;-66
2022/07/17 07:04:57;;;;;;;5.70;2.08;;;;;;;;;;5069619;28;21252;-65
2022/07/17 07:07:23;;;;;;;8.25;2.35;;;;;;;;;;5072097;28;20057;-65
2022/07/17 07:09:49;;;;;;;6.85;2.13;;;;;;;;;;5068816;28;20051;-65
2022/07/17 07:12:16;;;;;;;5.72;2.00;;;;;;;;;;5069624;28;20053;-64
2022/07/17 07:14:42;;;;;;;9.32;1.88;;;;;;;;;;5071747;28;20060;-66
2022/07/17 07:17:09;;;;;;;5.38;2.47;;;;;;;;;;5070114;28;20067;-67
2022/07/17 07:19:35;;;;;;;4.60;1.70;;;;;;;;;;5067372;28;20057;-65
2022/07/17 07:22:01;;;;;;;8.35;1.80;;;;;;;;;;5069353;28;20815;-65
2022/07/17 07:24:28;;;;;;;5.88;1.92;;;;;;;;;;5071869;28;20053;-66
2022/07/17 07:26:54;;;;;;;9.52;2.10;;;;;;;;;;5071540;28;20091;-66
2022/07/17 07:29:21;;;;;;;8.43;2.13;;;;;;;;;;5072508;28;20081;-65
2022/07/17 07:31:47;;;;;;;3.88;1.50;;;;;;;;;;5070614;28;20434;-66
2022/07/17 07:34:14;;;;;;;3.05;1.17;;;;;;;;;;5071345;28;20147;-66
2022/07/17 07:36:40;;;;;;;5.18;1.77;;;;;;;;;;5087272;28;20140;-65
2022/07/17 07:39:06;;;;;;;5.45;1.75;;;;;;;;;;5066621;28;20144;-65
2022/07/17 07:41:33;;;;;;;6.25;1.48;;;;;;;;;;5067067;28;20053;-66
2022/07/17 07:43:59;;;;;;;9.02;2.17;;;;;;;;;;5070047;28;20136;-66
2022/07/17 07:46:25;;;;;;;9.40;1.63;;;;;;;;;;5071483;28;20053;-65
2022/07/17 07:48:52;;;;;;;5.93;1.23;;;;;;;;;;5071636;28;20048;-67
2022/07/17 07:51:18;;;;;;;9.05;1.88;;;;;;;;;;5071581;28;20513;-65
2022/07/17 07:54:05;;;;;;;3.55;1.60;;;;;;;;;;5067864;28;20049;-65
2022/07/17 07:56:31;;;;;;;3.15;1.35;;;;;;;;;;5085832;28;20055;-65
2022/07/17 07:58:58;;;;;;;4.65;1.73;;;;;;;;;;5061505;28;20048;-66
2022/07/17 08:01:24;;;;;;;3.22;1.25;;;;;;;;;;5072086;28;20049;-65
2022/07/17 08:03:51;;;;;;;3.72;1.48;;;;;;;;;;5086996;28;20505;-64
2022/07/17 08:06:17;;;;;;;5.70;1.85;;;;;;;;;;5071910;28;20059;-65
2022/07/17 08:08:44;;;;;;;4.68;1.38;;;;;;;;;;5073037;28;20597;-64
2022/07/17 08:11:10;;;;;;;5.25;1.20;;;;;;;;;;5073258;28;20055;-65
2022/07/17 08:13:36;;;;;;;5.53;1.85;;;;;;;;;;5071728;28;20160;-63
2022/07/17 08:16:03;;;;;;;8.70;1.35;;;;;;;;;;5109052;28;20055;-65
2022/07/17 08:18:29;;;;;;;3.63;1.08;;;;;;;;;;5092625;28;20064;-68
2022/07/17 08:20:56;;;;;;;2.35;1.08;;;;;;;;;;5092485;28;20506;-67
2022/07/17 08:23:22;;;;;;;4.55;1.48;;;;;;;;;;5056249;28;20053;-68
2022/07/17 08:25:48;;;;;;;6.05;1.70;;;;;;;;;;5066661;28;20060;-67
2022/07/17 08:28:15;;;;;;;5.80;1.30;;;;;;;;;;5072659;28;20102;-69
2022/07/17 08:30:41;;;;;;;4.72;1.35;;;;;;;;;;5072180;28;20516;-69
2022/07/17 08:33:08;;;;;;;3.78;1.27;;;;;;;;;;5087959;28;20052;-68
2022/07/17 08:35:35;;;;;;;6.93;1.70;;;;;;;;;;5072331;28;20057;-67
2022/07/17 08:38:02;;;;;;;3.95;1.55;;;;;;;;;;5070355;28;20524;-67
2022/07/17 08:40:29;;;;;;;3.70;1.20;;;;;;;;;;5070126;28;20144;-67
2022/07/17 08:42:57;;;;;;;7.05;1.67;;;;;;;;;;5071098;28;20045;-66
2022/07/17 08:45:24;;;;;;;2.50;1.15;;;;;;;;;;5071677;28;20490;-67
2022/07/17 08:47:51;;;;;;;3.13;1.20;;;;;;;;;;5071368;28;20048;-68
2022/07/17 08:50:21;;;;;;;4.65;1.50;;;;;;;;;;5071611;28;20057;-67
2022/07/17 08:52:47;;;;;;;4.80;1.17;;;;;;;;;;5059048;28;20107;-68
2022/07/17 08:55:14;;;;;;;8.25;1.88;;;;;;;;;;5072142;28;20490;-68
2022/07/17 08:57:42;;;;;;;7.65;1.60;;;;;;;;;;5090596;28;20132;-68
2022/07/17 09:00:14;;;;;;;5.13;1.42;;;;;;;;;;5092020;28;20060;-68
2022/07/17 09:03:02;;;;;;;5.93;1.35;;;;;;;;;;5091571;28;20150;-68
2022/07/17 09:05:38;;;;;;;4.30;1.52;;;;;;;;;;5061952;28;20060;-68
2022/07/17 09:08:06;;;;;;;3.78;1.50;;;;;;;;;;5070887;28;20136;-68
2022/07/17 09:10:42;;;;;;;3.17;1.38;;;;;;;;;;5071251;28;20057;-68
2022/07/17 09:13:15;;;;;;;6.47;1.60;;;;;;;;;;5069843;28;20057;-67
2022/07/17 09:15:41;;;;;;;5.65;1.50;;;;;;;;;;5070233;28;20080;-68
2022/07/17 09:18:11;;;;;;;5.43;1.63;;;;;;;;;;5071201;28;20060;-68
2022/07/17 09:20:38;;;;;;;6.32;1.73;;;;;;;;;;5071190;28;20057;-68
2022/07/17 09:23:05;;;;;;;4.13;1.55;;;;;;;;;;5071283;28;20139;-68
2022/07/17 09:25:33;;;;;;;4.63;2.00;;;;;;;;;;5070628;28;20057;-68
2022/07/17 09:28:00;;;;;;;5.35;1.63;;;;;;;;;;5072104;28;20057;-66
2022/07/17 09:30:26;;;;;;;4.43;1.48;;;;;;;;;;5070301;28;20160;-66
2022/07/17 09:32:54;;;;;;;5.15;1.92;;;;;;;;;;5083624;28;20960;-66
2022/07/17 09:35:21;;;;;;;4.65;1.50;;;;;;;;;;5070760;28;20144;-66
2022/07/17 09:37:50;;;;;;;3.05;0.90;;;;;;;;;;5070904;28;20450;-66
2022/07/17 09:43:04;;;;;;;4.10;1.83;;;;;;;;;;5050689;28;20179;-66
2022/07/17 09:45:32;;;;;;;6.65;1.25;;;;;;;;;;5049331;28;20086;-67
2022/07/17 09:47:58;;;;;;;4.70;1.60;;;;;;;;;;5070766;28;20107;-67
2022/07/17 09:50:26;;;;;;;5.80;1.27;;;;;;;;;;5071873;28;20041;-67
2022/07/17 09:52:55;;;;;;;5.75;1.98;;;;;;;;;;5074639;28;20049;-66
2022/07/17 09:55:22;;;;;;;2.83;1.33;;;;;;;;;;5072005;28;20097;-66
2022/07/17 09:58:09;;;;;;;5.82;1.20;;;;;;;;;;5054172;28;20524;-66
2022/07/17 10:00:35;;;;;;;3.72;1.20;;;;;;;;;;5073408;28;20049;-67
2022/07/17 10:03:02;;;;;;;4.95;1.58;;;;;;;;;;5073690;28;20053;-65
2022/07/17 10:05:29;;;;;;;6.72;1.67;;;;;;;;;;5089426;28;20221;-67
2022/07/17 10:07:56;;;;;;;2.17;1.30;;;;;;;;;;5085533;28;20495;-66
2022/07/17 10:10:22;;;;;;;4.82;1.20;;;;;;;;;;5094485;28;20060;-66
2022/07/17 10:12:50;;;;;;;4.68;1.73;;;;;;;;;;5071005;28;20140;-67
2022/07/17 10:15:16;;;;;;;10.52;2.30;;;;;;;;;;5052535;28;20144;-68
2022/07/17 10:17:43;;;;;;;3.88;1.45;;;;;;;;;;5067461;28;20056;-65
2022/07/17 10:20:13;;;;;;;5.78;1.70;;;;;;;;;;5062350;28;20068;-68
2022/07/17 10:22:40;;;;;;;4.13;1.58;;;;;;;;;;5072064;28;20132;-69
2022/07/17 10:25:07;;;;;;;2.22;1.30;;;;;;;;;;5086550;28;20053;-68
2022/07/17 10:27:35;;;;;;;4.85;1.48;;;;;;;;;;5073438;28;20426;-67
2022/07/17 10:30:03;;;;;;;6.28;1.65;;;;;;;;;;5073144;28;20920;-67
2022/07/17 10:32:30;;;;;;;6.60;1.42;;;;;;;;;;5073068;28;20111;-65
2022/07/17 10:35:00;;;;;;;8.52;2.03;;;;;;;;;;5073588;28;20136;-67
2022/07/17 10:37:33;;;;;;;5.07;1.60;;;;;;;;;;5086690;28;20052;-65
2022/07/17 10:40:10;;;;;;;6.10;2.00;;;;;;;;;;5074566;28;20490;-67
2022/07/17 10:42:37;;;;;;;7.22;1.58;;;;;;;;;;5073333;28;20544;-67
2022/07/17 10:45:11;;;;;;;7.13;2.13;;;;;;;;;;5073711;28;20502;-68
2022/07/17 10:47:43;;;;;;;3.00;1.40;;;;;;;;;;5072723;28;20211;-69
2022/07/17 10:50:11;;;;;;;3.75;1.70;;;;;;;;;;5089562;28;20474;-67
2022/07/17 10:52:37;;;;;;;3.53;1.45;;;;;;;;;;5080157;28;20486;-70
2022/07/17 10:55:16;;;;;;;3.47;1.70;;;;;;;;;;5055879;28;20571;-67
2022/07/17 10:57:43;;;;;;;2.90;1.65;;;;;;;;;;5053059;28;20487;-68
2022/07/17 11:00:10;;;;;;;6.00;1.67;;;;;;;;;;5053008;28;20053;-68
2022/07/17 11:02:37;;;;;;;3.17;1.70;;;;;;;;;;5071994;28;20132;-67
2022/07/17 11:05:07;;;;;;;3.80;1.55;;;;;;;;;;5070547;28;20140;-67
2022/07/17 11:07:33;;;;;;;6.97;1.73;;;;;;;;;;5073274;28;20056;-66
2022/07/17 11:10:00;;;;;;;3.13;1.90;;;;;;;;;;5080954;28;20128;-68
2022/07/17 11:12:32;;;;;;;4.00;1.63;;;;;;;;;;5054347;28;20059;-66
2022/07/17 11:15:00;;;;;;;5.22;1.95;;;;;;;;;;5067981;28;20059;-67
2022/07/17 11:17:26;;;;;;;3.83;1.58;;;;;;;;;;5083847;28;20041;-66
2022/07/17 11:19:53;;;;;;;3.70;1.95;;;;;;;;;;5074573;28;20503;-67
2022/07/17 11:22:22;;;;;;;10.65;1.95;;;;;;;;;;5073183;28;20053;-67
2022/07/17 11:24:49;;;;;;;2.67;1.52;;;;;;;;;;5072883;28;20084;-67
2022/07/17 11:27:18;;;;;;;4.68;1.98;;;;;;;;;;5072040;28;20084;-67
2022/07/17 11:29:44;;;;;;;3.20;1.52;;;;;;;;;;5072782;28;20053;-68
2022/07/17 11:32:10;;;;;;;9.07;1.80;;;;;;;;;;5073132;28;20053;-68
2022/07/17 11:34:37;;;;;;;3.17;1.80;;;;;;;;;;5073147;28;20057;-67
2022/07/17 11:37:04;;;;;;;3.30;1.85;;;;;;;;;;5073589;28;20515;-67
2022/07/17 11:39:41;;;;;;;9.60;2.00;;;;;;;;;;5073881;28;20053;-69
2022/07/17 11:42:09;;;;;;;2.42;2.03;;;;;;;;;;5071143;28;20049;-68
2022/07/17 11:44:35;;;;;;;5.00;2.00;;;;;;;;;;5061065;28;20057;-68
2022/07/17 11:47:03;;;;;;;4.65;2.60;;;;;;;;;;5051229;28;20053;-67
2022/07/17 11:49:34;;;;;;;4.05;1.90;;;;;;;;;;5067185;28;20080;-67
2022/07/17 11:52:06;;;;;;;4.10;1.98;;;;;;;;;;5073184;28;20602;-67
2022/07/17 11:54:42;;;;;;;3.17;1.83;;;;;;;;;;5083907;28;20540;-67
2022/07/17 11:57:09;;;;;;;3.38;2.13;;;;;;;;;;5053069;28;20054;-67
2022/07/17 11:59:35;;;;;;;4.07;2.35;;;;;;;;;;5052962;28;20104;-66
2022/07/17 12:02:20;;;;;;;4.63;1.98;;;;;;;;;;5068791;28;20056;-68
2022/07/17 12:04:53;;;;;;;5.53;1.90;;;;;;;;;;5073506;28;20053;-66
2022/07/17 12:07:20;;;;;;;7.63;2.30;;;;;;;;;;5072601;28;20063;-67
2022/07/17 12:09:47;;;;;;;3.05;1.70;;;;;;;;;;5072321;28;20049;-68
2022/07/17 12:12:25;;;;;;;2.60;1.80;;;;;;;;;;5071723;28;20145;-65
2022/07/17 12:14:52;;;;;;;4.60;2.28;;;;;;;;;;5068939;28;20063;-66
2022/07/17 12:17:20;;;;;;;4.40;1.80;;;;;;;;;;5064494;28;20442;-64
2022/07/17 12:19:47;;;;;;;3.25;1.95;;;;;;;;;;5058262;28;20057;-66
2022/07/17 12:22:13;;;;;;;3.25;1.90;;;;;;;;;;5057214;28;20058;-65
2022/07/17 12:24:40;;;;;;;4.18;1.88;;;;;;;;;;5071633;28;20049;-66
2022/07/17 12:27:08;;;;;;;3.85;2.05;;;;;;;;;;5067313;28;20111;-67
2022/07/17 12:29:35;;;;;;;4.32;2.53;;;;;;;;;;5069865;28;20057;-68
2022/07/17 12:32:10;;;;;;;2.95;2.03;;;;;;;;;;5071646;28;20059;-68
2022/07/17 12:34:38;;;;;;;5.32;2.00;;;;;;;;;;5066859;28;20061;-69
2022/07/17 12:37:04;;;;;;;4.47;2.17;;;;;;;;;;5068471;28;20060;-68
2022/07/17 12:39:31;;;;;;;4.63;1.95;;;;;;;;;;5060716;28;20053;-69
2022/07/17 12:41:58;;;;;;;8.77;2.35;;;;;;;;;;5071529;28;20087;-68
2022/07/17 12:44:24;;;;;;;4.82;2.20;;;;;;;;;;5056166;28;20140;-68
2022/07/17 12:46:50;;;;;;;2.55;1.98;;;;;;;;;;5076497;28;20053;-68
2022/07/17 12:49:17;;;;;;;3.88;1.98;;;;;;;;;;5065024;28;20139;-69
2022/07/17 12:51:43;;;;;;;5.85;2.05;;;;;;;;;;5064248;28;20067;-68
2022/07/17 12:54:10;;;;;;;5.15;2.75;;;;;;;;;;5069484;28;20053;-68
2022/07/17 12:56:36;;;;;;;2.78;1.90;;;;;;;;;;5070666;28;20049;-68
2022/07/17 12:59:02;;;;;;;2.92;1.92;;;;;;;;;;5068797;28;20059;-68
2022/07/17 13:01:29;;;;;;;4.35;2.00;;;;;;;;;;5069265;28;20084;-67
2022/07/17 13:03:56;;;;;;;5.75;2.40;;;;;;;;;;5065327;28;20107;-67
2022/07/17 13:06:22;;;;;;;4.05;2.08;;;;;;;;;;5066214;28;20052;-68
2022/07/17 13:08:48;;;;;;;3.92;2.22;;;;;;;;;;5064185;28;20133;-67
2022/07/17 13:11:15;;;;;;;3.05;2.10;;;;;;;;;;5061350;28;20085;-68
2022/07/17 13:13:45;;;;;;;3.72;2.35;;;;;;;;;;5061184;28;20168;-68
2022/07/17 13:16:12;;;;;;;3.47;2.33;;;;;;;;;;5057348;28;20048;-67
2022/07/17 13:18:39;;;;;;;3.97;1.90;;;;;;;;;;5066953;28;20056;-67
2022/07/17 13:21:06;;;;;;;4.68;2.30;;;;;;;;;;5064451;28;20059;-67
2022/07/17 13:23:35;;;;;;;3.60;2.20;;;;;;;;;;5058755;28;20510;-67
2022/07/17 13:26:02;;;;;;;4.43;2.03;;;;;;;;;;5075372;28;20084;-68
2022/07/17 13:28:29;;;;;;;5.82;2.28;;;;;;;;;;5074665;28;20096;-67
2022/07/17 13:30:56;;;;;;;5.30;2.33;;;;;;;;;;5071744;28;20057;-67
2022/07/17 13:33:22;;;;;;;4.85;2.47;;;;;;;;;;5078251;28;20664;-69
2022/07/17 13:35:49;;;;;;;5.22;2.88;;;;;;;;;;5068077;28;20080;-67
2022/07/17 13:38:15;;;;;;;5.43;2.50;;;;;;;;;;5073705;28;20126;-68
2022/07/17 13:40:42;;;;;;;2.95;2.20;;;;;;;;;;5072010;28;20055;-67
2022/07/17 13:43:08;;;;;;;3.63;2.55;;;;;;;;;;5072478;28;20055;-67
2022/07/17 13:45:34;;;;;;;3.40;2.35;;;;;;;;;;5072925;28;20176;-66
2022/07/17 13:48:01;;;;;;;2.95;2.08;;;;;;;;;;5075408;28;20147;-66
2022/07/17 13:50:27;;;;;;;5.55;2.72;;;;;;;;;;5076726;28;20047;-65
2022/07/17 13:52:54;;;;;;;3.55;2.65;;;;;;;;;;5074571;28;20052;-66
2022/07/17 13:55:20;;;;;;;4.70;2.70;;;;;;;;;;5071880;28;20052;-66
2022/07/17 13:58:07;;;;;;;4.78;2.85;;;;;;;;;;5074464;28;20056;-66
2022/07/17 14:00:34;;;;;;;5.25;2.65;;;;;;;;;;5073161;28;20135;-66
2022/07/17 14:03:02;;;;;;;5.85;2.53;;;;;;;;;;5079614;28;20470;-67
2022/07/17 14:05:28;;;;;;;2.88;2.58;;;;;;;;;;5063288;28;20085;-67
2022/07/17 14:07:54;;;;;;;7.15;3.50;;;;;;;;;;5065580;28;20057;-66
2022/07/17 14:10:21;;;;;;;3.53;2.80;;;;;;;;;;5066971;28;20425;-66
2022/07/17 14:12:47;;;;;;;3.85;2.50;;;;;;;;;;5070356;28;20148;-66
2022/07/17 14:15:13;;;;;;;5.50;2.88;;;;;;;;;;5082289;28;20144;-68
2022/07/17 14:17:40;;;;;;;4.53;3.00;;;;;;;;;;5073661;28;20135;-68
2022/07/17 14:20:07;;;;;;;3.33;2.83;;;;;;;;;;5073262;28;20482;-68
2022/07/17 14:22:33;;;;;;;3.53;2.60;;;;;;;;;;5073695;28;20073;-66
2022/07/17 14:24:59;;;;;;;3.55;2.88;;;;;;;;;;5083466;28;20111;-67
2022/07/17 14:27:26;;;;;;;5.32;3.30;;;;;;;;;;5071648;28;20080;-69
2022/07/17 14:29:52;;;;;;;3.53;2.80;;;;;;;;;;5078636;28;20098;-67
2022/07/17 14:32:19;;;;;;;4.43;3.55;;;;;;;;;;5065092;28;20488;-67
2022/07/17 14:34:45;;;;;;;5.07;3.10;;;;;;;;;;5073641;28;20484;-66
2022/07/17 14:37:11;;;;;;;4.25;3.42;;;;;;;;;;5072794;28;20491;-66
2022/07/17 14:39:38;;;;;;;4.40;3.55;;;;;;;;;;5089178;28;20504;-66
2022/07/17 14:42:04;;;;;;;4.95;3.60;;;;;;;;;;5077786;28;20132;-66
2022/07/17 14:44:30;;;;;;;5.53;3.25;;;;;;;;;;5066115;28;20092;-67
2022/07/17 14:46:58;;;;;;;3.80;2.90;;;;;;;;;;5071993;28;20052;-66